Terminal Aerodrome Forecast
Issued by NWS Pocatello, ID

Home | Current Version | Previous Version | Text Only | Print | Product List | Glossary On
Versions: 1 2 3 4 5 6 7 8 9 10 11 12 13 14
000
FTUS45 KPIH 242327
TAFIDA
TAF
KIDA 242327Z 2500/2524 20012G24KT P6SM BKN100
     FM250300 20011KT P6SM VCSH SCT015 OVC045
     FM250700 20008KT P6SM -SHRA SCT020 OVC030
     FM251200 20007KT P6SM VCSH BKN020 OVC040
     FM251600 22014G24KT P6SM VCSH SCT020 BKN040=

USA.gov is the U.S. government's official web portal to all federal, state and local government web resources and services.